createdAt,value
2023-02-19T09:22:35.163Z,9.68
2023-02-19T09:25:03.522Z,9.88
2023-02-19T09:27:32.348Z,9.78
2023-02-19T09:30:00.122Z,9.80
2023-02-19T09:32:30.973Z,10.06
2023-02-19T09:34:58.897Z,9.89
2023-02-19T09:37:34.084Z,10.13
2023-02-19T09:40:02.211Z,9.94
2023-02-19T09:42:33.002Z,10.20
2023-02-19T09:45:01.971Z,10.08
2023-02-19T09:47:32.918Z,10.19
2023-02-19T09:50:16.759Z,10.18
2023-02-19T09:52:54.144Z,10.31
2023-02-19T09:55:48.184Z,10.26
2023-02-19T09:58:57.194Z,10.29
2023-02-19T10:01:30.111Z,10.33
2023-02-19T10:03:58.531Z,10.40
2023-02-19T10:06:29.839Z,10.43
2023-02-19T10:09:21.221Z,10.35
2023-02-19T10:11:49.586Z,10.44
2023-02-19T10:14:31.951Z,10.67
2023-02-19T10:17:03.289Z,10.56
2023-02-19T10:19:33.819Z,10.89
2023-02-19T10:22:04.219Z,10.71
2023-02-19T10:24:32.108Z,10.98
2023-02-19T10:27:00.724Z,10.77
2023-02-19T10:29:28.673Z,10.80
2023-02-19T10:32:18.768Z,10.84
2023-02-19T10:34:47.540Z,10.99
2023-02-19T10:37:18.682Z,11.18
2023-02-19T10:39:50.475Z,11.14
2023-02-19T10:42:21.438Z,11.29
2023-02-19T10:44:58.975Z,11.11
2023-02-19T10:47:29.275Z,11.21
2023-02-19T10:50:02.105Z,11.16
2023-02-19T10:52:35.332Z,11.40
2023-02-19T10:55:28.937Z,11.30
2023-02-19T10:57:57.881Z,11.57
2023-02-19T11:00:30.336Z,11.41
2023-02-19T11:03:23.947Z,11.35
2023-02-19T11:06:01.779Z,11.42
2023-02-19T11:08:30.567Z,11.55
2023-02-19T11:10:58.608Z,11.45
2023-02-19T11:13:32.830Z,11.62
2023-02-19T11:16:01.232Z,11.63
2023-02-19T11:18:33.014Z,11.73
2023-02-19T11:21:04.986Z,11.76
2023-02-19T11:23:37.676Z,11.69
2023-02-19T11:26:16.574Z,11.70
2023-02-19T11:28:44.689Z,11.65
2023-02-19T11:31:23.016Z,11.52
2023-02-19T11:34:17.438Z,11.69
2023-02-19T11:36:45.508Z,11.72
2023-02-19T11:39:15.988Z,11.74
2023-02-19T11:42:04.359Z,11.81
2023-02-19T11:55:19.074Z,11.79
2023-02-19T11:58:51.911Z,11.96
2023-02-19T12:02:17.437Z,11.95
2023-02-19T12:05:45.918Z,11.99
2023-02-19T12:08:50.883Z,11.95
2023-02-19T12:11:40.837Z,11.94
2023-02-19T12:14:29.109Z,12.12
2023-02-19T12:18:18.842Z,12.05
2023-02-19T12:21:22.494Z,12.19
2023-02-19T12:24:45.826Z,12.34
2023-02-19T12:28:10.938Z,12.44
2023-02-19T12:31:45.133Z,12.81
2023-02-19T12:35:12.429Z,12.68
2023-02-19T12:38:12.832Z,12.79
2023-02-19T12:41:00.322Z,12.88
2023-02-19T12:43:55.546Z,12.95
2023-02-19T12:46:35.474Z,12.86
2023-02-19T12:49:13.141Z,12.90
2023-02-19T12:51:55.912Z,12.87
2023-02-19T12:54:39.866Z,12.99
2023-02-19T12:57:39.258Z,13.08
2023-02-19T13:00:51.974Z,13.19
2023-02-19T13:03:32.391Z,13.45
2023-02-19T13:06:19.693Z,13.39
2023-02-19T13:09:07.377Z,13.32
2023-02-19T13:11:38.587Z,13.28
2023-02-19T13:14:14.874Z,13.16
2023-02-19T13:16:48.594Z,13.14
2023-02-19T13:19:16.308Z,13.15
2023-02-19T13:22:09.737Z,12.95
2023-02-19T13:24:42.712Z,12.95
2023-02-19T13:27:22.994Z,12.97
2023-02-19T13:30:12.205Z,12.98
2023-02-19T13:32:59.685Z,12.83
2023-02-19T13:35:49.545Z,12.83
2023-02-19T13:38:17.919Z,12.78
2023-02-19T13:40:57.121Z,12.66
2023-02-19T13:43:35.488Z,12.59
2023-02-19T13:46:17.192Z,12.66
2023-02-19T13:48:45.379Z,12.66
2023-02-19T13:51:13.301Z,12.86
2023-02-19T13:53:50.350Z,12.91
2023-02-19T13:56:44.724Z,13.02
2023-02-19T13:59:12.432Z,13.16
2023-02-19T14:01:53.051Z,13.23
2023-02-19T14:04:51.995Z,13.36
2023-02-19T14:07:33.147Z,13.39
2023-02-19T14:10:02.233Z,13.44
2023-02-19T14:12:37.606Z,13.43
2023-02-19T14:15:36.667Z,13.55
2023-02-19T14:18:43.103Z,13.60
2023-02-19T14:21:27.947Z,13.62
2023-02-19T14:23:58.022Z,13.77
2023-02-19T14:26:27.654Z,13.86
2023-02-19T14:28:56.070Z,13.69
2023-02-19T14:31:31.298Z,13.70
2023-02-19T14:34:03.511Z,13.55
2023-02-19T14:36:40.628Z,13.36
2023-02-19T14:39:11.186Z,13.25
2023-02-19T14:41:42.738Z,13.29
2023-02-19T14:44:18.595Z,13.26
2023-02-19T14:46:54.426Z,13.35
2023-02-19T14:49:31.672Z,13.45
2023-02-19T14:52:03.619Z,13.50
2023-02-19T14:55:04.061Z,13.50
2023-02-19T14:57:36.225Z,13.53
2023-02-19T15:00:20.244Z,13.54
2023-02-19T15:02:49.680Z,13.50
2023-02-19T15:05:22.288Z,13.29
2023-02-19T15:07:51.533Z,13.24
2023-02-19T15:10:20.362Z,13.13
2023-02-19T15:12:57.301Z,13.08
2023-02-19T15:15:29.664Z,13.05
2023-02-19T15:17:59.158Z,12.86
2023-02-19T15:20:31.054Z,12.89
2023-02-19T15:23:00.986Z,12.73
2023-02-19T15:25:37.886Z,12.74
2023-02-19T15:28:24.041Z,12.68
2023-02-19T15:30:58.395Z,12.59
2023-02-19T15:33:27.800Z,12.62
2023-02-19T15:36:02.115Z,12.54
2023-02-19T15:38:30.684Z,12.43
2023-02-19T15:40:59.487Z,12.37
2023-02-19T15:43:53.887Z,12.38
2023-02-19T15:46:24.914Z,12.19
2023-02-19T15:49:09.042Z,12.20
2023-02-19T15:52:01.499Z,12.12
2023-02-19T15:54:41.445Z,12.07
2023-02-19T15:57:19.829Z,12.00
2023-02-19T15:59:54.904Z,11.80
2023-02-19T16:02:23.511Z,11.76
2023-02-19T16:04:51.591Z,11.60
2023-02-19T16:07:34.275Z,11.54
2023-02-19T16:10:24.229Z,11.54
2023-02-19T16:13:00.265Z,11.59
2023-02-19T16:15:32.710Z,11.50
2023-02-19T16:18:00.694Z,11.50
2023-02-19T16:20:36.135Z,11.45
2023-02-19T16:23:13.231Z,11.43
2023-02-19T16:25:45.130Z,11.27
2023-02-19T16:28:24.793Z,11.27
2023-02-19T16:30:57.882Z,11.17
2023-02-19T16:33:41.192Z,11.26
2023-02-19T16:36:32.455Z,11.23
2023-02-19T16:39:14.802Z,11.13
2023-02-19T16:41:48.706Z,11.23
2023-02-19T16:44:30.905Z,11.17
2023-02-19T16:47:06.403Z,11.05
2023-02-19T16:49:37.308Z,11.03
2023-02-19T16:52:05.224Z,10.97
2023-02-19T16:54:33.593Z,11.01
2023-02-19T16:57:01.797Z,11.03
2023-02-19T16:59:29.806Z,10.99
2023-02-19T17:01:57.960Z,10.96
2023-02-19T17:04:27.610Z,10.87
2023-02-19T17:06:55.481Z,10.90
2023-02-19T17:09:24.436Z,10.79
2023-02-19T17:11:52.868Z,10.77
2023-02-19T17:14:20.725Z,10.74
2023-02-19T17:16:48.712Z,10.77
2023-02-19T17:19:19.041Z,10.70
2023-02-19T17:21:47.258Z,10.66
2023-02-19T17:24:18.406Z,10.60
2023-02-19T17:26:46.754Z,10.65
2023-02-19T17:29:18.044Z,10.63
2023-02-19T17:31:46.538Z,10.55
2023-02-19T17:34:14.483Z,10.55
2023-02-19T17:36:44.740Z,10.74
2023-02-19T17:39:18.025Z,10.68
2023-02-19T17:41:46.518Z,10.59
2023-02-19T17:44:14.394Z,10.53
2023-02-19T17:46:42.423Z,10.46
2023-02-19T17:49:12.677Z,10.57
2023-02-19T17:51:41.059Z,10.41
2023-02-19T17:54:09.511Z,10.48
2023-02-19T17:56:37.562Z,10.50
2023-02-19T17:59:05.891Z,10.45
2023-02-19T18:01:33.859Z,10.52
2023-02-19T18:04:02.188Z,10.61
2023-02-19T18:06:30.332Z,10.49
2023-02-19T18:08:59.675Z,10.36
2023-02-19T18:11:28.355Z,10.50
2023-02-19T18:13:56.408Z,10.56
2023-02-19T18:16:24.088Z,10.44
2023-02-19T18:18:53.376Z,10.48
2023-02-19T18:21:23.851Z,10.51
2023-02-19T18:23:51.841Z,10.55
2023-02-19T18:26:21.497Z,10.71
2023-02-19T18:28:49.992Z,10.72
2023-02-19T18:31:17.917Z,10.79
2023-02-19T18:33:46.180Z,10.84
2023-02-19T18:36:14.150Z,10.78
2023-02-19T18:38:42.531Z,10.97
2023-02-19T18:41:14.350Z,11.04
2023-02-19T18:43:42.713Z,11.15
2023-02-19T18:46:11.066Z,11.17
2023-02-19T18:48:39.294Z,11.26
2023-02-19T18:51:11.127Z,11.21
2023-02-19T18:53:45.164Z,11.26
2023-02-19T18:56:13.147Z,10.80
2023-02-19T18:58:44.250Z,10.45
2023-02-19T19:01:13.807Z,10.73
2023-02-19T19:03:41.946Z,11.03
2023-02-19T19:06:09.896Z,11.10
2023-02-19T19:08:37.589Z,11.22
2023-02-19T19:11:06.283Z,11.19
2023-02-19T19:13:35.323Z,11.22
2023-02-19T19:16:03.686Z,11.37
2023-02-19T19:18:38.161Z,11.47
2023-02-19T19:21:07.178Z,11.34
2023-02-19T19:23:36.680Z,10.77
2023-02-19T19:26:06.158Z,10.41
2023-02-19T19:28:34.109Z,10.74
2023-02-19T19:31:03.472Z,10.76
2023-02-19T19:33:32.192Z,10.33
2023-02-19T19:36:00.100Z,10.28
2023-02-19T19:38:28.094Z,10.60
2023-02-19T19:40:56.073Z,10.17
2023-02-19T19:43:27.714Z,10.12
2023-02-19T19:45:56.849Z,9.66
2023-02-19T19:48:27.600Z,9.36
2023-02-19T19:50:58.790Z,8.81
2023-02-19T19:53:26.840Z,8.63
2023-02-19T19:55:54.767Z,8.28
2023-02-19T19:58:24.849Z,8.26
2023-02-19T20:00:53.558Z,7.99
2023-02-19T20:03:22.046Z,8.28
2023-02-19T20:05:51.318Z,8.09
2023-02-19T20:08:19.606Z,7.66
2023-02-19T20:10:47.719Z,7.78
2023-02-19T20:13:19.493Z,7.73
2023-02-19T20:15:47.798Z,7.52
2023-02-19T20:18:15.588Z,7.31
2023-02-19T20:20:43.445Z,7.25
2023-02-19T20:23:12.715Z,7.09
2023-02-19T20:25:40.613Z,6.98
2023-02-19T20:28:08.287Z,6.78
2023-02-19T20:30:37.362Z,6.58
2023-02-19T20:33:05.320Z,6.52
2023-02-19T20:35:33.748Z,6.41
2023-02-19T20:38:02.347Z,6.05
2023-02-19T20:40:31.375Z,5.85
2023-02-19T20:43:01.005Z,5.62
2023-02-19T20:45:31.010Z,5.40
2023-02-19T20:47:58.664Z,5.39
2023-02-19T20:50:26.503Z,5.23
2023-02-19T20:52:55.759Z,4.95
2023-02-19T20:55:24.955Z,4.85
2023-02-19T20:57:52.882Z,4.93
2023-02-19T21:00:21.514Z,4.77
2023-02-19T21:02:49.915Z,4.95
2023-02-19T21:05:19.925Z,4.84
2023-02-19T21:07:48.218Z,4.85
2023-02-19T21:10:16.288Z,4.98
2023-02-19T21:12:44.067Z,4.91
2023-02-19T21:15:15.596Z,5.10
2023-02-19T21:17:46.578Z,5.21
2023-02-19T21:20:15.372Z,5.10
2023-02-19T21:22:43.760Z,5.27
2023-02-19T21:25:12.041Z,5.12
2023-02-19T21:27:40.017Z,5.13
2023-02-19T21:30:08.627Z,5.23
2023-02-19T21:32:36.404Z,4.98
2023-02-19T21:35:05.935Z,5.18
2023-02-19T21:37:33.523Z,5.32
2023-02-19T21:40:01.416Z,5.13
2023-02-19T21:42:29.461Z,5.25
2023-02-19T21:44:57.245Z,5.34
2023-02-19T21:47:24.850Z,5.33
2023-02-19T21:49:52.728Z,5.27
2023-02-19T21:52:20.976Z,5.20
2023-02-19T21:54:48.625Z,5.48
2023-02-19T21:57:16.727Z,5.50
2023-02-19T21:59:44.923Z,5.52
2023-02-19T22:02:12.700Z,5.35
2023-02-19T22:04:40.763Z,5.37
2023-02-19T22:07:08.524Z,5.35
2023-02-19T22:09:36.634Z,5.38
2023-02-19T22:12:05.047Z,5.41
2023-02-19T22:14:32.724Z,5.56
2023-02-19T22:17:00.310Z,5.42
2023-02-19T22:19:28.248Z,5.55
2023-02-19T22:21:55.918Z,5.48
2023-02-19T22:24:23.500Z,5.22
2023-02-19T22:26:56.563Z,5.38
2023-02-19T22:29:24.476Z,5.46
2023-02-19T22:31:52.970Z,5.60
2023-02-19T22:34:20.716Z,5.70
2023-02-19T22:36:48.585Z,5.43
2023-02-19T22:39:25.605Z,5.76
2023-02-19T22:41:54.004Z,5.65
2023-02-19T22:44:22.168Z,5.47
2023-02-19T22:46:54.915Z,5.61
2023-02-19T22:49:24.123Z,5.78
2023-02-19T22:52:04.437Z,5.71
2023-02-19T22:54:32.286Z,5.69
2023-02-19T22:56:59.949Z,5.63
2023-02-19T22:59:27.879Z,5.46
2023-02-19T23:01:56.498Z,5.65
2023-02-19T23:04:25.425Z,5.78
2023-02-19T23:06:56.061Z,5.74
2023-02-19T23:09:27.394Z,5.50
2023-02-19T23:12:07.008Z,5.70
2023-02-19T23:14:35.471Z,5.83
2023-02-19T23:17:03.570Z,5.73
2023-02-19T23:19:32.151Z,5.81
2023-02-19T23:22:00.335Z,5.79
2023-02-19T23:24:27.896Z,5.73
2023-02-19T23:26:55.587Z,5.83
2023-02-19T23:29:25.890Z,5.77
2023-02-19T23:31:54.716Z,5.96
2023-02-19T23:34:22.785Z,5.76
2023-02-19T23:36:51.564Z,5.67
2023-02-19T23:39:21.406Z,5.91
2023-02-19T23:41:51.373Z,5.93
2023-02-19T23:44:20.563Z,6.03
2023-02-19T23:46:50.189Z,5.89
2023-02-19T23:49:19.159Z,5.98
2023-02-19T23:51:47.202Z,5.90
2023-02-19T23:54:14.998Z,6.08
2023-02-19T23:56:42.598Z,5.93
2023-02-19T23:59:10.618Z,5.75
